createdAt,value
2023-02-05T00:03:45.471Z,9.75
2023-02-05T00:08:47.999Z,15.90
2023-02-05T00:13:50.395Z,11.75
2023-02-05T00:18:53.372Z,11.95
2023-02-05T00:23:55.697Z,9.43
2023-02-05T00:28:58.013Z,9.88
2023-02-05T00:34:00.442Z,9.20
2023-02-05T00:53:10.563Z,7.43
2023-02-05T00:58:13.112Z,11.30
2023-02-05T01:03:15.423Z,7.22
2023-02-05T01:08:17.623Z,14.57
2023-02-05T01:13:20.095Z,16.45
2023-02-05T01:18:22.375Z,6.75
2023-02-05T01:23:24.539Z,10.13
2023-02-05T01:28:26.724Z,8.23
2023-02-05T01:33:29.670Z,9.07
2023-02-05T01:38:31.810Z,11.65
2023-02-05T01:43:34.147Z,9.50
2023-02-05T01:48:42.602Z,11.52
2023-02-05T01:53:46.728Z,4.38
2023-02-05T01:58:57.359Z,6.45
2023-02-05T02:04:04.924Z,10.05
2023-02-05T02:09:08.407Z,15.40
2023-02-05T02:14:12.420Z,5.50
2023-02-05T02:19:23.968Z,3.97
2023-02-05T02:25:40.257Z,3.42
2023-02-05T02:31:14.155Z,3.40
2023-02-05T02:36:25.567Z,4.47
2023-02-05T02:41:37.750Z,6.40
2023-02-05T02:46:49.111Z,9.35
2023-02-05T02:51:52.679Z,8.63
2023-02-05T02:56:58.123Z,8.85
2023-02-05T03:02:04.935Z,8.07
2023-02-05T03:07:35.291Z,7.07
2023-02-05T03:12:40.329Z,6.65
2023-02-05T03:17:44.055Z,7.72
2023-02-05T03:22:46.632Z,6.97
2023-02-05T03:27:52.305Z,6.55
2023-02-05T03:33:32.375Z,10.90
2023-02-05T03:38:58.593Z,9.52
2023-02-05T03:44:24.199Z,10.30
2023-02-05T03:50:00.116Z,13.15
2023-02-05T03:55:05.568Z,9.90
2023-02-05T04:00:10.232Z,12.00
2023-02-05T04:05:23.206Z,7.07
2023-02-05T04:10:28.412Z,16.67
2023-02-05T04:15:34.238Z,12.73
2023-02-05T04:20:40.430Z,14.82
2023-02-05T04:25:44.621Z,10.40
2023-02-05T04:30:51.529Z,9.73
2023-02-05T04:35:59.282Z,10.88
2023-02-05T04:41:51.495Z,8.80
2023-02-05T04:46:53.922Z,9.32
2023-02-05T04:51:56.329Z,9.93
2023-02-05T04:56:58.670Z,7.88
2023-02-05T05:02:01.053Z,7.93
2023-02-05T05:07:03.892Z,7.65
2023-02-05T05:12:06.650Z,7.68
2023-02-05T05:17:08.840Z,42.78
2023-02-05T05:22:11.263Z,59.03
2023-02-05T05:27:13.641Z,34.22
2023-02-05T05:32:15.914Z,41.33
2023-02-05T05:37:18.329Z,20.60
2023-02-05T05:42:39.168Z,9.05
2023-02-05T05:52:43.395Z,8.00
2023-02-05T05:57:45.662Z,16.92
2023-02-05T06:02:47.926Z,7.93
2023-02-05T06:07:50.108Z,7.70
2023-02-05T06:12:55.544Z,9.98
2023-02-05T06:17:57.822Z,13.60
2023-02-05T06:23:00.467Z,6.60
2023-02-05T06:28:03.118Z,7.82
2023-02-05T06:33:05.716Z,6.88
2023-02-05T06:38:08.398Z,6.80
2023-02-05T06:43:10.591Z,36.50
2023-02-05T06:48:27.787Z,39.60
2023-02-05T06:53:32.049Z,8.68
2023-02-05T06:58:34.648Z,25.17
2023-02-05T07:03:37.100Z,10.65
2023-02-05T07:08:39.358Z,13.32
2023-02-05T07:13:41.522Z,8.15
2023-02-05T07:18:43.863Z,7.00
2023-02-05T07:23:46.113Z,6.30
2023-02-05T07:28:48.378Z,5.63
2023-02-05T07:33:51.065Z,5.75
2023-02-05T07:38:53.249Z,10.40
2023-02-05T07:43:55.374Z,14.50
2023-02-05T07:48:57.726Z,30.27
2023-02-05T07:53:59.856Z,43.50
2023-02-05T07:59:02.315Z,19.33
2023-02-05T08:04:04.968Z,11.40
2023-02-05T08:09:07.402Z,38.55
2023-02-05T08:14:09.641Z,21.65
2023-02-05T08:19:16.583Z,12.30
2023-02-05T08:24:19.041Z,8.77
2023-02-05T08:29:21.250Z,10.48
2023-02-05T08:34:23.704Z,7.65
2023-02-05T08:39:26.465Z,14.15
2023-02-05T08:44:29.552Z,7.75
2023-02-05T08:49:31.811Z,8.50
2023-02-05T08:54:34.187Z,9.80
2023-02-05T08:59:36.334Z,14.57
2023-02-05T09:04:39.593Z,8.23
2023-02-05T09:09:45.177Z,10.02
2023-02-05T09:14:47.324Z,9.73
2023-02-05T09:19:49.454Z,9.23
2023-02-05T09:24:51.751Z,28.30
2023-02-05T09:29:53.915Z,60.60
2023-02-05T09:34:56.339Z,17.10
2023-02-05T09:45:42.600Z,12.60
2023-02-05T09:50:45.210Z,14.35
2023-02-05T09:55:48.477Z,6.53
2023-02-05T10:00:55.797Z,6.82
2023-02-05T10:06:16.609Z,5.65
2023-02-05T10:11:40.858Z,6.82
2023-02-05T10:17:07.293Z,8.02
2023-02-05T10:22:26.990Z,12.93
2023-02-05T10:28:03.929Z,18.23
2023-02-05T10:33:30.929Z,12.30
2023-02-05T10:38:38.300Z,21.10
2023-02-05T10:43:46.677Z,23.10
2023-02-05T10:48:59.910Z,16.38
2023-02-05T10:54:02.409Z,12.10
2023-02-05T10:59:06.381Z,12.35
2023-02-05T11:04:15.547Z,15.77
2023-02-05T11:09:27.183Z,17.77
2023-02-05T11:14:41.319Z,11.07
2023-02-05T11:19:54.478Z,11.10
2023-02-05T11:25:13.729Z,10.73
2023-02-05T11:30:56.114Z,17.23
2023-02-05T11:36:14.280Z,14.68
2023-02-05T11:41:48.599Z,10.10
2023-02-05T11:46:57.110Z,13.32
2023-02-05T11:52:01.918Z,8.23
2023-02-05T11:57:22.568Z,10.25
2023-02-05T12:02:30.641Z,13.27
2023-02-05T12:07:41.465Z,12.45
2023-02-05T12:13:06.973Z,9.77
2023-02-05T12:18:26.975Z,11.85
2023-02-05T12:23:59.832Z,12.25
2023-02-05T12:29:05.182Z,15.27
2023-02-05T12:34:36.256Z,17.60
2023-02-05T12:50:58.500Z,24.40
2023-02-05T12:56:07.035Z,8.38
2023-02-05T13:01:15.237Z,19.45
2023-02-05T13:06:20.571Z,5.60
2023-02-05T13:11:31.113Z,24.30
2023-02-05T13:16:45.098Z,8.95
2023-02-05T13:22:06.114Z,9.90
2023-02-05T13:33:00.609Z,9.50
2023-02-05T13:38:17.726Z,12.52
2023-02-05T13:43:38.452Z,18.88
2023-02-05T13:49:02.726Z,8.57
2023-02-05T13:54:23.509Z,41.35
2023-02-05T13:59:51.772Z,12.40
2023-02-05T14:04:55.033Z,11.20
2023-02-05T14:10:02.947Z,23.33
2023-02-05T14:15:21.232Z,12.07
2023-02-05T14:20:26.518Z,16.92
2023-02-05T14:26:07.495Z,86.80
2023-02-05T14:31:45.804Z,32.65
2023-02-05T14:36:48.200Z,23.17
2023-02-05T14:41:56.242Z,12.35
2023-02-05T14:47:08.923Z,20.95
2023-02-05T14:52:31.574Z,15.13
2023-02-05T14:57:40.137Z,22.77
2023-02-05T15:03:10.195Z,25.13
2023-02-05T15:08:48.086Z,18.30
2023-02-05T15:14:35.640Z,27.60
2023-02-05T15:19:50.342Z,53.92
2023-02-05T15:24:54.056Z,25.35
2023-02-05T15:29:57.516Z,115.13
2023-02-05T15:35:14.580Z,228.98
2023-02-05T15:40:25.326Z,275.67
2023-02-05T15:50:56.643Z,43.85
2023-02-05T15:56:07.429Z,52.85
2023-02-05T16:01:09.858Z,57.03
2023-02-05T16:06:20.059Z,52.60
2023-02-05T16:11:34.378Z,23.27
2023-02-05T16:16:39.941Z,27.45
2023-02-05T16:21:48.517Z,24.08
2023-02-05T16:41:40.868Z,17.87
2023-02-05T16:46:43.155Z,14.27
2023-02-05T16:51:48.225Z,17.15
2023-02-05T16:57:16.599Z,16.42
2023-02-05T17:02:33.731Z,16.30
2023-02-05T17:07:36.835Z,12.13
2023-02-05T17:12:46.920Z,15.57
2023-02-05T17:17:55.076Z,17.43
2023-02-05T17:23:03.724Z,22.10
2023-02-05T17:28:08.184Z,18.15
2023-02-05T17:33:15.455Z,13.48
2023-02-05T17:38:18.302Z,21.42
2023-02-05T17:43:40.891Z,13.82
2023-02-05T17:48:44.857Z,17.52
2023-02-05T17:53:56.794Z,15.18
2023-02-05T17:59:02.044Z,16.70
2023-02-05T18:04:04.245Z,18.60
2023-02-05T18:09:07.100Z,16.50
2023-02-05T18:14:09.935Z,18.92
2023-02-05T18:19:14.751Z,22.42
2023-02-05T18:24:17.135Z,32.70
2023-02-05T18:29:21.754Z,19.77
2023-02-05T18:34:24.309Z,28.27
2023-02-05T18:39:29.057Z,27.60
2023-02-05T18:44:33.078Z,21.10
2023-02-05T18:49:35.483Z,27.67
2023-02-05T18:54:37.688Z,30.33
2023-02-05T18:59:40.981Z,28.98
2023-02-05T19:04:44.691Z,42.22
2023-02-05T19:09:46.881Z,19.02
2023-02-05T19:14:49.951Z,22.08
2023-02-05T19:19:52.454Z,19.27
2023-02-05T19:24:55.757Z,25.35
2023-02-05T19:35:49.179Z,17.17
2023-02-05T19:40:51.852Z,30.23
2023-02-05T19:45:55.448Z,32.30
2023-02-05T19:51:03.930Z,15.63
2023-02-05T19:56:07.816Z,26.95
2023-02-05T20:01:23.917Z,25.13
2023-02-05T20:06:29.721Z,23.80
2023-02-05T20:11:35.605Z,14.88
2023-02-05T20:16:40.689Z,26.90
2023-02-05T20:21:44.344Z,27.80
2023-02-05T20:26:50.564Z,30.08
2023-02-05T20:32:02.237Z,37.55
2023-02-05T20:37:21.132Z,24.45
2023-02-05T20:42:26.374Z,30.98
2023-02-05T20:47:28.947Z,20.95
2023-02-05T20:52:31.552Z,12.93
2023-02-05T20:57:33.822Z,19.33
2023-02-05T21:02:39.005Z,15.65
2023-02-05T21:07:41.512Z,18.23
2023-02-05T21:12:43.746Z,39.80
2023-02-05T21:17:45.939Z,37.70
2023-02-05T21:22:48.246Z,20.02
2023-02-05T21:27:51.065Z,31.13
2023-02-05T21:32:53.698Z,37.75
2023-02-05T21:37:55.903Z,49.15
2023-02-05T21:42:58.206Z,86.90
2023-02-05T21:48:00.667Z,25.38
2023-02-05T21:53:02.892Z,23.80
2023-02-05T21:58:05.084Z,35.10
2023-02-05T22:03:07.467Z,33.20
2023-02-05T22:08:11.802Z,34.72
2023-02-05T22:13:14.284Z,26.75
2023-02-05T22:18:19.040Z,34.95
2023-02-05T22:23:21.403Z,20.90
2023-02-05T22:28:23.646Z,6.68
2023-02-05T22:33:25.832Z,5.13
2023-02-05T22:38:30.533Z,4.60
2023-02-05T22:43:32.876Z,4.55
2023-02-05T22:48:40.611Z,3.95
2023-02-05T22:53:43.523Z,4.38
2023-02-05T22:58:47.831Z,4.45
2023-02-05T23:03:52.195Z,4.68
2023-02-05T23:08:57.657Z,4.57
2023-02-05T23:14:01.128Z,5.18
2023-02-05T23:19:07.676Z,4.95
2023-02-05T23:24:10.489Z,4.32
2023-02-05T23:29:15.894Z,3.88
2023-02-05T23:34:18.340Z,3.97
2023-02-05T23:39:20.835Z,4.00
2023-02-05T23:44:23.237Z,3.72
2023-02-05T23:49:25.786Z,4.20
2023-02-05T23:54:28.090Z,3.60
2023-02-05T23:59:30.625Z,4.35
